sensor_id;sensor_type;location;lat;lon;timestamp;temperature;humidity
72650;SHT31;61467;50.674;4.618;2023-03-30T00:01:11;15.86;55.26
72650;SHT31;61467;50.674;4.618;2023-03-30T00:03:40;15.87;55.57
72650;SHT31;61467;50.674;4.618;2023-03-30T00:06:09;15.91;55.50
72650;SHT31;61467;50.674;4.618;2023-03-30T00:08:38;15.86;55.59
72650;SHT31;61467;50.674;4.618;2023-03-30T00:11:10;15.81;55.82
72650;SHT31;61467;50.674;4.618;2023-03-30T00:13:38;15.80;55.90
72650;SHT31;61467;50.674;4.618;2023-03-30T00:16:06;15.81;56.09
72650;SHT31;61467;50.674;4.618;2023-03-30T00:18:33;15.76;56.27
72650;SHT31;61467;50.674;4.618;2023-03-30T00:21:02;15.59;56.76
72650;SHT31;61467;50.674;4.618;2023-03-30T00:23:29;15.74;56.65
72650;SHT31;61467;50.674;4.618;2023-03-30T00:25:56;15.56;57.24
72650;SHT31;61467;50.674;4.618;2023-03-30T00:28:23;15.64;56.92
72650;SHT31;61467;50.674;4.618;2023-03-30T00:30:51;15.67;57.07
72650;SHT31;61467;50.674;4.618;2023-03-30T00:33:18;15.52;57.34
72650;SHT31;61467;50.674;4.618;2023-03-30T00:35:50;15.60;56.94
72650;SHT31;61467;50.674;4.618;2023-03-30T00:38:19;15.50;56.95
72650;SHT31;61467;50.674;4.618;2023-03-30T00:40:50;15.63;56.86
72650;SHT31;61467;50.674;4.618;2023-03-30T00:43:18;15.64;56.87
72650;SHT31;61467;50.674;4.618;2023-03-30T00:45:44;15.43;57.16
72650;SHT31;61467;50.674;4.618;2023-03-30T00:48:13;15.47;56.91
72650;SHT31;61467;50.674;4.618;2023-03-30T00:50:44;15.44;56.83
72650;SHT31;61467;50.674;4.618;2023-03-30T00:53:14;15.42;56.93
72650;SHT31;61467;50.674;4.618;2023-03-30T00:55:45;15.49;56.40
72650;SHT31;61467;50.674;4.618;2023-03-30T00:58:13;15.49;56.35
72650;SHT31;61467;50.674;4.618;2023-03-30T01:00:42;15.46;56.31
72650;SHT31;61467;50.674;4.618;2023-03-30T01:03:16;15.43;56.66
72650;SHT31;61467;50.674;4.618;2023-03-30T01:05:45;15.39;56.81
72650;SHT31;61467;50.674;4.618;2023-03-30T01:08:13;15.43;56.56
72650;SHT31;61467;50.674;4.618;2023-03-30T01:10:45;15.35;57.11
72650;SHT31;61467;50.674;4.618;2023-03-30T01:13:13;15.43;56.73
72650;SHT31;61467;50.674;4.618;2023-03-30T01:15:49;15.47;56.82
72650;SHT31;61467;50.674;4.618;2023-03-30T01:18:28;15.36;57.28
72650;SHT31;61467;50.674;4.618;2023-03-30T01:24:15;15.36;57.23
72650;SHT31;61467;50.674;4.618;2023-03-30T01:26:53;15.36;57.70
72650;SHT31;61467;50.674;4.618;2023-03-30T01:29:44;15.23;57.80
72650;SHT31;61467;50.674;4.618;2023-03-30T01:35:37;15.25;57.96
72650;SHT31;61467;50.674;4.618;2023-03-30T01:41:14;15.35;57.91
72650;SHT31;61467;50.674;4.618;2023-03-30T01:43:49;15.32;58.32
72650;SHT31;61467;50.674;4.618;2023-03-30T01:46:19;15.32;58.59
72650;SHT31;61467;50.674;4.618;2023-03-30T01:48:56;15.19;58.89
72650;SHT31;61467;50.674;4.618;2023-03-30T01:51:27;15.15;59.04
72650;SHT31;61467;50.674;4.618;2023-03-30T01:53:59;15.18;59.37
72650;SHT31;61467;50.674;4.618;2023-03-30T01:56:32;15.08;59.88
72650;SHT31;61467;50.674;4.618;2023-03-30T01:59:05;14.95;60.42
72650;SHT31;61467;50.674;4.618;2023-03-30T02:01:35;15.01;60.32
72650;SHT31;61467;50.674;4.618;2023-03-30T02:04:05;15.16;60.07
72650;SHT31;61467;50.674;4.618;2023-03-30T02:06:35;15.19;59.92
72650;SHT31;61467;50.674;4.618;2023-03-30T02:09:06;15.23;59.98
72650;SHT31;61467;50.674;4.618;2023-03-30T02:11:38;15.13;60.41
72650;SHT31;61467;50.674;4.618;2023-03-30T02:14:08;14.98;60.88
72650;SHT31;61467;50.674;4.618;2023-03-30T02:16:41;14.94;60.95
72650;SHT31;61467;50.674;4.618;2023-03-30T02:19:09;14.98;61.32
72650;SHT31;61467;50.674;4.618;2023-03-30T02:21:37;14.78;61.75
72650;SHT31;61467;50.674;4.618;2023-03-30T02:24:06;14.71;62.10
72650;SHT31;61467;50.674;4.618;2023-03-30T02:26:34;14.68;62.23
72650;SHT31;61467;50.674;4.618;2023-03-30T02:29:03;14.74;61.97
72650;SHT31;61467;50.674;4.618;2023-03-30T02:31:30;14.65;62.31
72650;SHT31;61467;50.674;4.618;2023-03-30T02:34:07;14.80;62.23
72650;SHT31;61467;50.674;4.618;2023-03-30T02:36:57;14.85;61.86
72650;SHT31;61467;50.674;4.618;2023-03-30T02:39:38;14.78;62.19
72650;SHT31;61467;50.674;4.618;2023-03-30T02:42:21;14.81;62.10
72650;SHT31;61467;50.674;4.618;2023-03-30T02:45:01;14.75;62.17
72650;SHT31;61467;50.674;4.618;2023-03-30T02:47:39;14.65;62.23
72650;SHT31;61467;50.674;4.618;2023-03-30T02:50:15;14.59;62.28
72650;SHT31;61467;50.674;4.618;2023-03-30T02:52:52;14.71;62.37
72650;SHT31;61467;50.674;4.618;2023-03-30T02:55:23;14.73;62.12
72650;SHT31;61467;50.674;4.618;2023-03-30T02:57:59;14.64;62.41
72650;SHT31;61467;50.674;4.618;2023-03-30T03:00:37;14.81;61.69
72650;SHT31;61467;50.674;4.618;2023-03-30T03:03:13;14.64;62.25
72650;SHT31;61467;50.674;4.618;2023-03-30T03:05:41;14.84;61.71
72650;SHT31;61467;50.674;4.618;2023-03-30T03:08:12;14.53;62.54
72650;SHT31;61467;50.674;4.618;2023-03-30T03:10:40;14.59;62.43
72650;SHT31;61467;50.674;4.618;2023-03-30T03:13:07;14.60;62.26
72650;SHT31;61467;50.674;4.618;2023-03-30T03:15:37;14.63;62.26
72650;SHT31;61467;50.674;4.618;2023-03-30T03:18:04;14.64;62.35
72650;SHT31;61467;50.674;4.618;2023-03-30T03:20:31;14.74;61.99
72650;SHT31;61467;50.674;4.618;2023-03-30T03:22:58;14.65;62.30
72650;SHT31;61467;50.674;4.618;2023-03-30T03:25:25;14.63;62.21
72650;SHT31;61467;50.674;4.618;2023-03-30T03:27:52;14.70;62.02
72650;SHT31;61467;50.674;4.618;2023-03-30T03:30:19;14.73;61.61
72650;SHT31;61467;50.674;4.618;2023-03-30T03:32:47;14.71;61.76
72650;SHT31;61467;50.674;4.618;2023-03-30T03:35:15;14.73;61.78
72650;SHT31;61467;50.674;4.618;2023-03-30T03:37:42;14.84;61.71
72650;SHT31;61467;50.674;4.618;2023-03-30T03:40:09;14.67;61.79
72650;SHT31;61467;50.674;4.618;2023-03-30T03:42:36;14.81;61.26
72650;SHT31;61467;50.674;4.618;2023-03-30T03:45:04;14.81;61.29
72650;SHT31;61467;50.674;4.618;2023-03-30T03:47:32;14.82;61.63
72650;SHT31;61467;50.674;4.618;2023-03-30T03:50:01;14.74;61.48
72650;SHT31;61467;50.674;4.618;2023-03-30T03:52:31;14.61;61.81
72650;SHT31;61467;50.674;4.618;2023-03-30T03:54:58;14.57;62.18
72650;SHT31;61467;50.674;4.618;2023-03-30T03:57:25;14.60;62.23
72650;SHT31;61467;50.674;4.618;2023-03-30T03:59:52;14.73;61.88
72650;SHT31;61467;50.674;4.618;2023-03-30T04:02:20;14.65;61.90
72650;SHT31;61467;50.674;4.618;2023-03-30T04:04:47;14.56;62.27
72650;SHT31;61467;50.674;4.618;2023-03-30T04:07:16;14.50;62.34
72650;SHT31;61467;50.674;4.618;2023-03-30T04:09:43;14.47;62.60
72650;SHT31;61467;50.674;4.618;2023-03-30T04:12:10;14.36;63.11
72650;SHT31;61467;50.674;4.618;2023-03-30T04:14:37;14.32;63.05
72650;SHT31;61467;50.674;4.618;2023-03-30T04:17:04;14.17;63.76
72650;SHT31;61467;50.674;4.618;2023-03-30T04:19:31;14.19;63.43
72650;SHT31;61467;50.674;4.618;2023-03-30T04:21:58;14.37;62.92
72650;SHT31;61467;50.674;4.618;2023-03-30T04:24:26;14.36;63.24
72650;SHT31;61467;50.674;4.618;2023-03-30T04:26:54;14.36;63.24
72650;SHT31;61467;50.674;4.618;2023-03-30T04:29:22;14.19;63.39
72650;SHT31;61467;50.674;4.618;2023-03-30T04:31:48;14.32;63.24
72650;SHT31;61467;50.674;4.618;2023-03-30T04:34:15;14.20;63.54
72650;SHT31;61467;50.674;4.618;2023-03-30T04:36:46;14.22;63.27
72650;SHT31;61467;50.674;4.618;2023-03-30T04:39:13;14.26;63.48
72650;SHT31;61467;50.674;4.618;2023-03-30T04:41:44;14.13;63.65
72650;SHT31;61467;50.674;4.618;2023-03-30T04:44:11;14.30;63.27
72650;SHT31;61467;50.674;4.618;2023-03-30T04:46:38;14.29;63.33
72650;SHT31;61467;50.674;4.618;2023-03-30T04:49:05;14.13;63.72
72650;SHT31;61467;50.674;4.618;2023-03-30T04:51:32;14.10;63.71
72650;SHT31;61467;50.674;4.618;2023-03-30T04:53:59;14.08;63.89
72650;SHT31;61467;50.674;4.618;2023-03-30T04:56:26;14.09;63.84
72650;SHT31;61467;50.674;4.618;2023-03-30T04:58:54;14.08;63.98
72650;SHT31;61467;50.674;4.618;2023-03-30T05:01:21;14.14;63.83
72650;SHT31;61467;50.674;4.618;2023-03-30T05:03:48;14.06;64.12
72650;SHT31;61467;50.674;4.618;2023-03-30T05:06:15;14.10;63.94
72650;SHT31;61467;50.674;4.618;2023-03-30T05:08:42;14.22;63.79
72650;SHT31;61467;50.674;4.618;2023-03-30T05:11:09;14.19;63.88
72650;SHT31;61467;50.674;4.618;2023-03-30T05:13:36;14.22;63.82
72650;SHT31;61467;50.674;4.618;2023-03-30T05:16:07;14.17;64.14
72650;SHT31;61467;50.674;4.618;2023-03-30T05:18:35;14.19;63.98
72650;SHT31;61467;50.674;4.618;2023-03-30T05:21:03;13.96;64.79
72650;SHT31;61467;50.674;4.618;2023-03-30T05:23:30;13.95;65.54
72650;SHT31;61467;50.674;4.618;2023-03-30T05:25:57;13.82;66.44
72650;SHT31;61467;50.674;4.618;2023-03-30T05:28:23;13.98;66.08
72650;SHT31;61467;50.674;4.618;2023-03-30T05:30:52;14.06;65.92
72650;SHT31;61467;50.674;4.618;2023-03-30T05:33:21;14.01;66.07
72650;SHT31;61467;50.674;4.618;2023-03-30T05:35:49;13.95;66.46
72650;SHT31;61467;50.674;4.618;2023-03-30T05:38:16;13.81;66.91
72650;SHT31;61467;50.674;4.618;2023-03-30T05:40:43;13.73;67.40
72650;SHT31;61467;50.674;4.618;2023-03-30T05:43:10;13.78;68.01
72650;SHT31;61467;50.674;4.618;2023-03-30T05:45:37;13.61;69.42
72650;SHT31;61467;50.674;4.618;2023-03-30T05:48:04;13.66;70.16
72650;SHT31;61467;50.674;4.618;2023-03-30T05:50:33;13.52;70.72
72650;SHT31;61467;50.674;4.618;2023-03-30T05:53:00;13.34;71.55
72650;SHT31;61467;50.674;4.618;2023-03-30T05:55:27;13.61;71.78
72650;SHT31;61467;50.674;4.618;2023-03-30T05:57:54;13.20;73.88
72650;SHT31;61467;50.674;4.618;2023-03-30T06:00:21;13.37;74.77
72650;SHT31;61467;50.674;4.618;2023-03-30T06:02:48;13.21;75.55
72650;SHT31;61467;50.674;4.618;2023-03-30T06:05:16;13.20;75.62
72650;SHT31;61467;50.674;4.618;2023-03-30T06:07:45;13.15;75.58
72650;SHT31;61467;50.674;4.618;2023-03-30T06:10:11;13.18;76.04
72650;SHT31;61467;50.674;4.618;2023-03-30T06:12:38;13.37;75.17
72650;SHT31;61467;50.674;4.618;2023-03-30T06:15:06;13.11;75.47
72650;SHT31;61467;50.674;4.618;2023-03-30T06:17:33;13.00;76.06
72650;SHT31;61467;50.674;4.618;2023-03-30T06:20:01;13.15;75.87
72650;SHT31;61467;50.674;4.618;2023-03-30T06:22:33;13.10;75.24
72650;SHT31;61467;50.674;4.618;2023-03-30T06:25:02;13.04;75.37
72650;SHT31;61467;50.674;4.618;2023-03-30T06:27:29;13.28;74.29
72650;SHT31;61467;50.674;4.618;2023-03-30T06:29:57;13.02;74.66
72650;SHT31;61467;50.674;4.618;2023-03-30T06:32:24;13.02;74.75
72650;SHT31;61467;50.674;4.618;2023-03-30T06:34:51;12.79;74.89
72650;SHT31;61467;50.674;4.618;2023-03-30T06:37:18;12.80;75.15
72650;SHT31;61467;50.674;4.618;2023-03-30T06:39:45;13.15;74.21
72650;SHT31;61467;50.674;4.618;2023-03-30T06:42:13;13.20;73.79
72650;SHT31;61467;50.674;4.618;2023-03-30T06:44:40;13.28;73.41
72650;SHT31;61467;50.674;4.618;2023-03-30T06:47:07;13.13;73.77
72650;SHT31;61467;50.674;4.618;2023-03-30T06:49:34;13.31;73.16
72650;SHT31;61467;50.674;4.618;2023-03-30T06:52:01;13.13;73.91
72650;SHT31;61467;50.674;4.618;2023-03-30T06:54:28;13.17;73.84
72650;SHT31;61467;50.674;4.618;2023-03-30T06:56:55;13.11;73.71
72650;SHT31;61467;50.674;4.618;2023-03-30T06:59:23;13.14;73.68
72650;SHT31;61467;50.674;4.618;2023-03-30T07:01:50;13.10;73.52
72650;SHT31;61467;50.674;4.618;2023-03-30T07:04:17;13.07;73.85
72650;SHT31;61467;50.674;4.618;2023-03-30T07:06:44;13.25;73.50
72650;SHT31;61467;50.674;4.618;2023-03-30T07:09:12;13.08;74.02
72650;SHT31;61467;50.674;4.618;2023-03-30T07:11:39;13.03;74.69
72650;SHT31;61467;50.674;4.618;2023-03-30T07:14:05;12.76;75.67
72650;SHT31;61467;50.674;4.618;2023-03-30T07:16:35;12.64;77.08
72650;SHT31;61467;50.674;4.618;2023-03-30T07:19:03;12.90;77.33
72650;SHT31;61467;50.674;4.618;2023-03-30T07:21:29;12.63;78.23
72650;SHT31;61467;50.674;4.618;2023-03-30T07:23:57;12.52;78.86
72650;SHT31;61467;50.674;4.618;2023-03-30T07:26:25;12.55;79.00
72650;SHT31;61467;50.674;4.618;2023-03-30T07:28:52;12.60;78.66
72650;SHT31;61467;50.674;4.618;2023-03-30T07:31:21;12.41;79.28
72650;SHT31;61467;50.674;4.618;2023-03-30T07:33:50;12.50;79.74
72650;SHT31;61467;50.674;4.618;2023-03-30T07:36:17;12.52;79.72
72650;SHT31;61467;50.674;4.618;2023-03-30T07:38:44;12.43;79.31
72650;SHT31;61467;50.674;4.618;2023-03-30T07:41:13;12.43;79.61
72650;SHT31;61467;50.674;4.618;2023-03-30T07:43:40;12.75;78.51
72650;SHT31;61467;50.674;4.618;2023-03-30T07:46:09;12.64;78.67
72650;SHT31;61467;50.674;4.618;2023-03-30T07:48:37;12.59;78.46
72650;SHT31;61467;50.674;4.618;2023-03-30T07:51:07;12.60;78.37
72650;SHT31;61467;50.674;4.618;2023-03-30T07:53:35;12.72;78.04
72650;SHT31;61467;50.674;4.618;2023-03-30T07:56:02;12.60;78.30
72650;SHT31;61467;50.674;4.618;2023-03-30T07:58:28;12.69;79.29
72650;SHT31;61467;50.674;4.618;2023-03-30T08:00:56;12.52;79.84
72650;SHT31;61467;50.674;4.618;2023-03-30T08:03:23;12.15;80.19
72650;SHT31;61467;50.674;4.618;2023-03-30T08:05:52;11.97;80.64
72650;SHT31;61467;50.674;4.618;2023-03-30T08:08:20;12.04;78.97
72650;SHT31;61467;50.674;4.618;2023-03-30T08:10:47;11.90;78.70
72650;SHT31;61467;50.674;4.618;2023-03-30T08:13:14;11.93;78.43
72650;SHT31;61467;50.674;4.618;2023-03-30T08:15:41;12.10;78.38
72650;SHT31;61467;50.674;4.618;2023-03-30T08:18:08;12.02;78.98
72650;SHT31;61467;50.674;4.618;2023-03-30T08:20:37;11.98;79.54
72650;SHT31;61467;50.674;4.618;2023-03-30T08:23:04;12.04;79.77
72650;SHT31;61467;50.674;4.618;2023-03-30T08:25:33;12.25;79.25
72650;SHT31;61467;50.674;4.618;2023-03-30T08:28:00;12.14;79.72
72650;SHT31;61467;50.674;4.618;2023-03-30T08:30:28;12.06;80.26
72650;SHT31;61467;50.674;4.618;2023-03-30T08:32:55;12.05;80.09
72650;SHT31;61467;50.674;4.618;2023-03-30T08:35:22;12.10;80.06
72650;SHT31;61467;50.674;4.618;2023-03-30T08:37:49;11.97;80.40
72650;SHT31;61467;50.674;4.618;2023-03-30T08:40:17;12.26;79.69
72650;SHT31;61467;50.674;4.618;2023-03-30T08:43:08;12.14;80.13
72650;SHT31;61467;50.674;4.618;2023-03-30T08:45:37;12.08;80.11
72650;SHT31;61467;50.674;4.618;2023-03-30T08:48:14;12.08;80.24
72650;SHT31;61467;50.674;4.618;2023-03-30T08:50:42;12.02;80.30
72650;SHT31;61467;50.674;4.618;2023-03-30T08:53:12;12.06;80.31
72650;SHT31;61467;50.674;4.618;2023-03-30T08:55:42;11.90;80.79
72650;SHT31;61467;50.674;4.618;2023-03-30T08:58:19;11.80;81.27
72650;SHT31;61467;50.674;4.618;2023-03-30T09:00:53;12.14;80.42
72650;SHT31;61467;50.674;4.618;2023-03-30T09:03:25;12.08;81.03
72650;SHT31;61467;50.674;4.618;2023-03-30T09:05:58;12.21;81.05
72650;SHT31;61467;50.674;4.618;2023-03-30T09:08:27;12.53;79.04
72650;SHT31;61467;50.674;4.618;2023-03-30T09:10:57;12.46;81.67
72650;SHT31;61467;50.674;4.618;2023-03-30T09:13:31;12.57;81.18
72650;SHT31;61467;50.674;4.618;2023-03-30T09:16:03;12.76;80.14
72650;SHT31;61467;50.674;4.618;2023-03-30T09:18:36;12.67;79.55
72650;SHT31;61467;50.674;4.618;2023-03-30T09:21:05;12.83;79.32
72650;SHT31;61467;50.674;4.618;2023-03-30T09:23:32;12.64;79.81
72650;SHT31;61467;50.674;4.618;2023-03-30T09:26:07;12.92;78.36
72650;SHT31;61467;50.674;4.618;2023-03-30T09:28:43;12.86;78.57
72650;SHT31;61467;50.674;4.618;2023-03-30T09:31:16;12.94;79.46
72650;SHT31;61467;50.674;4.618;2023-03-30T09:33:45;13.28;78.72
72650;SHT31;61467;50.674;4.618;2023-03-30T09:36:15;13.23;77.68
72650;SHT31;61467;50.674;4.618;2023-03-30T09:38:43;13.18;76.97
72650;SHT31;61467;50.674;4.618;2023-03-30T09:41:19;13.15;78.06
72650;SHT31;61467;50.674;4.618;2023-03-30T09:43:50;13.37;76.92
72650;SHT31;61467;50.674;4.618;2023-03-30T09:46:17;13.47;75.33
72650;SHT31;61467;50.674;4.618;2023-03-30T09:48:48;13.47;75.05
72650;SHT31;61467;50.674;4.618;2023-03-30T09:51:18;13.54;74.43
72650;SHT31;61467;50.674;4.618;2023-03-30T09:53:47;13.47;75.06
72650;SHT31;61467;50.674;4.618;2023-03-30T09:56:23;13.48;74.04
72650;SHT31;61467;50.674;4.618;2023-03-30T09:58:53;13.35;74.88
72650;SHT31;61467;50.674;4.618;2023-03-30T10:01:20;13.28;73.42
72650;SHT31;61467;50.674;4.618;2023-03-30T10:04:07;13.20;73.51
72650;SHT31;61467;50.674;4.618;2023-03-30T10:06:37;13.28;73.76
72650;SHT31;61467;50.674;4.618;2023-03-30T10:09:08;13.31;73.88
72650;SHT31;61467;50.674;4.618;2023-03-30T10:11:39;13.66;73.62
72650;SHT31;61467;50.674;4.618;2023-03-30T10:14:29;13.54;73.60
72650;SHT31;61467;50.674;4.618;2023-03-30T10:16:58;13.55;72.32
72650;SHT31;61467;50.674;4.618;2023-03-30T10:19:25;13.54;72.73
72650;SHT31;61467;50.674;4.618;2023-03-30T10:21:54;13.58;72.23
72650;SHT31;61467;50.674;4.618;2023-03-30T10:24:23;13.78;73.57
72650;SHT31;61467;50.674;4.618;2023-03-30T10:26:51;13.65;70.71
72650;SHT31;61467;50.674;4.618;2023-03-30T10:29:23;13.78;70.93
72650;SHT31;61467;50.674;4.618;2023-03-30T10:31:56;14.06;70.52
72650;SHT31;61467;50.674;4.618;2023-03-30T10:34:33;14.29;69.70
72650;SHT31;61467;50.674;4.618;2023-03-30T10:37:04;14.57;69.17
72650;SHT31;61467;50.674;4.618;2023-03-30T10:39:34;14.78;68.28
72650;SHT31;61467;50.674;4.618;2023-03-30T10:42:04;14.71;68.02
72650;SHT31;61467;50.674;4.618;2023-03-30T10:44:36;14.91;67.33
72650;SHT31;61467;50.674;4.618;2023-03-30T10:47:18;15.09;65.67
72650;SHT31;61467;50.674;4.618;2023-03-30T10:49:53;15.21;64.05
72650;SHT31;61467;50.674;4.618;2023-03-30T10:52:28;15.28;63.18
72650;SHT31;61467;50.674;4.618;2023-03-30T10:55:01;15.15;63.10
72650;SHT31;61467;50.674;4.618;2023-03-30T10:57:36;15.16;64.29
72650;SHT31;61467;50.674;4.618;2023-03-30T11:00:16;15.06;64.41
72650;SHT31;61467;50.674;4.618;2023-03-30T11:02:55;15.15;64.01
72650;SHT31;61467;50.674;4.618;2023-03-30T11:05:28;15.02;63.75
72650;SHT31;61467;50.674;4.618;2023-03-30T11:08:00;14.73;64.45
72650;SHT31;61467;50.674;4.618;2023-03-30T11:10:29;14.75;65.78
72650;SHT31;61467;50.674;4.618;2023-03-30T11:13:00;14.50;67.76
72650;SHT31;61467;50.674;4.618;2023-03-30T11:15:32;14.50;68.95
72650;SHT31;61467;50.674;4.618;2023-03-30T11:18:06;14.44;68.99
72650;SHT31;61467;50.674;4.618;2023-03-30T11:20:39;14.54;69.19
72650;SHT31;61467;50.674;4.618;2023-03-30T11:23:14;14.59;69.02
72650;SHT31;61467;50.674;4.618;2023-03-30T11:25:52;14.91;65.48
72650;SHT31;61467;50.674;4.618;2023-03-30T11:28:34;14.99;62.94
72650;SHT31;61467;50.674;4.618;2023-03-30T11:31:10;15.43;62.79
72650;SHT31;61467;50.674;4.618;2023-03-30T11:33:43;15.44;61.19
72650;SHT31;61467;50.674;4.618;2023-03-30T11:36:15;15.29;60.79
72650;SHT31;61467;50.674;4.618;2023-03-30T11:38:47;15.39;61.63
72650;SHT31;61467;50.674;4.618;2023-03-30T11:41:17;15.66;61.49
72650;SHT31;61467;50.674;4.618;2023-03-30T11:43:48;16.08;60.66
72650;SHT31;61467;50.674;4.618;2023-03-30T11:46:25;16.14;59.91
72650;SHT31;61467;50.674;4.618;2023-03-30T11:52:14;16.45;58.59
72650;SHT31;61467;50.674;4.618;2023-03-30T11:55:21;16.55;57.91
72650;SHT31;61467;50.674;4.618;2023-03-30T11:57:59;16.75;57.72
72650;SHT31;61467;50.674;4.618;2023-03-30T12:00:39;16.38;56.95
72650;SHT31;61467;50.674;4.618;2023-03-30T12:03:19;16.24;57.30
72650;SHT31;61467;50.674;4.618;2023-03-30T12:05:50;16.49;57.45
72650;SHT31;61467;50.674;4.618;2023-03-30T12:08:40;16.77;56.51
72650;SHT31;61467;50.674;4.618;2023-03-30T12:11:15;17.04;54.59
72650;SHT31;61467;50.674;4.618;2023-03-30T12:13:44;16.93;53.67
72650;SHT31;61467;50.674;4.618;2023-03-30T12:16:13;16.93;54.46
72650;SHT31;61467;50.674;4.618;2023-03-30T12:18:51;16.79;54.33
72650;SHT31;61467;50.674;4.618;2023-03-30T12:21:30;16.56;54.02
72650;SHT31;61467;50.674;4.618;2023-03-30T12:24:04;16.42;54.38
72650;SHT31;61467;50.674;4.618;2023-03-30T12:26:35;16.28;55.07
72650;SHT31;61467;50.674;4.618;2023-03-30T12:29:08;15.94;55.14
72650;SHT31;61467;50.674;4.618;2023-03-30T12:32:02;16.00;56.29
72650;SHT31;61467;50.674;4.618;2023-03-30T12:34:33;16.03;58.37
72650;SHT31;61467;50.674;4.618;2023-03-30T12:37:04;15.94;58.13
72650;SHT31;61467;50.674;4.618;2023-03-30T12:39:39;15.87;57.59
72650;SHT31;61467;50.674;4.618;2023-03-30T12:42:18;15.96;58.29
72650;SHT31;61467;50.674;4.618;2023-03-30T12:48:16;16.24;57.73
72650;SHT31;61467;50.674;4.618;2023-03-30T12:50:56;16.05;58.19
72650;SHT31;61467;50.674;4.618;2023-03-30T12:53:46;16.49;57.93
72650;SHT31;61467;50.674;4.618;2023-03-30T12:56:24;16.96;57.72
72650;SHT31;61467;50.674;4.618;2023-03-30T12:59:14;17.04;56.26
72650;SHT31;61467;50.674;4.618;2023-03-30T13:01:55;16.92;55.90
72650;SHT31;61467;50.674;4.618;2023-03-30T13:04:27;16.87;55.58
72650;SHT31;61467;50.674;4.618;2023-03-30T13:06:58;16.77;53.76
72650;SHT31;61467;50.674;4.618;2023-03-30T13:09:30;16.66;55.21
72650;SHT31;61467;50.674;4.618;2023-03-30T13:12:26;16.82;55.12
72650;SHT31;61467;50.674;4.618;2023-03-30T13:14:57;16.71;55.47
72650;SHT31;61467;50.674;4.618;2023-03-30T13:17:25;16.97;55.45
72650;SHT31;61467;50.674;4.618;2023-03-30T13:20:16;17.03;54.57
72650;SHT31;61467;50.674;4.618;2023-03-30T13:22:59;16.82;55.55
72650;SHT31;61467;50.674;4.618;2023-03-30T13:25:35;16.49;55.90
72650;SHT31;61467;50.674;4.618;2023-03-30T13:28:43;16.25;57.93
72650;SHT31;61467;50.674;4.618;2023-03-30T13:31:34;16.34;58.04
72650;SHT31;61467;50.674;4.618;2023-03-30T13:34:12;16.08;59.23
72650;SHT31;61467;50.674;4.618;2023-03-30T13:36:44;15.86;60.43
72650;SHT31;61467;50.674;4.618;2023-03-30T13:39:19;15.89;62.17
72650;SHT31;61467;50.674;4.618;2023-03-30T13:41:59;15.74;62.57
72650;SHT31;61467;50.674;4.618;2023-03-30T13:44:46;15.56;64.21
72650;SHT31;61467;50.674;4.618;2023-03-30T13:47:27;15.63;64.25
72650;SHT31;61467;50.674;4.618;2023-03-30T13:49:58;15.83;64.41
72650;SHT31;61467;50.674;4.618;2023-03-30T13:52:31;15.97;62.41
72650;SHT31;61467;50.674;4.618;2023-03-30T13:55:00;16.15;60.53
72650;SHT31;61467;50.674;4.618;2023-03-30T13:57:32;16.36;58.63
72650;SHT31;61467;50.674;4.618;2023-03-30T14:00:05;16.48;56.28
72650;SHT31;61467;50.674;4.618;2023-03-30T14:02:38;16.75;55.33
72650;SHT31;61467;50.674;4.618;2023-03-30T14:05:18;16.72;55.11
72650;SHT31;61467;50.674;4.618;2023-03-30T14:07:47;16.77;55.09
72650;SHT31;61467;50.674;4.618;2023-03-30T14:10:17;16.90;55.07
72650;SHT31;61467;50.674;4.618;2023-03-30T14:12:47;17.09;54.93
72650;SHT31;61467;50.674;4.618;2023-03-30T14:15:16;16.99;55.07
72650;SHT31;61467;50.674;4.618;2023-03-30T14:17:49;17.07;55.78
72650;SHT31;61467;50.674;4.618;2023-03-30T14:20:25;17.38;55.41
72650;SHT31;61467;50.674;4.618;2023-03-30T14:22:54;17.34;54.74
72650;SHT31;61467;50.674;4.618;2023-03-30T14:25:28;17.23;54.31
72650;SHT31;61467;50.674;4.618;2023-03-30T14:27:55;17.16;54.57
72650;SHT31;61467;50.674;4.618;2023-03-30T14:30:24;17.07;54.46
72650;SHT31;61467;50.674;4.618;2023-03-30T14:33:07;17.03;55.10
72650;SHT31;61467;50.674;4.618;2023-03-30T14:35:39;16.79;56.00
72650;SHT31;61467;50.674;4.618;2023-03-30T14:38:11;16.65;56.96
72650;SHT31;61467;50.674;4.618;2023-03-30T14:40:41;16.76;57.48
72650;SHT31;61467;50.674;4.618;2023-03-30T14:43:12;16.48;57.96
72650;SHT31;61467;50.674;4.618;2023-03-30T14:45:39;16.48;58.30
72650;SHT31;61467;50.674;4.618;2023-03-30T14:48:12;16.18;59.83
72650;SHT31;61467;50.674;4.618;2023-03-30T14:50:42;16.18;60.74
72650;SHT31;61467;50.674;4.618;2023-03-30T14:53:11;16.34;61.19
72650;SHT31;61467;50.674;4.618;2023-03-30T14:55:38;16.17;60.32
72650;SHT31;61467;50.674;4.618;2023-03-30T14:58:09;16.32;60.19
72650;SHT31;61467;50.674;4.618;2023-03-30T15:00:39;16.22;60.39
72650;SHT31;61467;50.674;4.618;2023-03-30T15:03:08;16.03;61.30
72650;SHT31;61467;50.674;4.618;2023-03-30T15:05:37;15.96;61.92
72650;SHT31;61467;50.674;4.618;2023-03-30T15:08:13;15.69;62.44
72650;SHT31;61467;50.674;4.618;2023-03-30T15:10:44;16.18;62.68
72650;SHT31;61467;50.674;4.618;2023-03-30T15:13:19;16.20;62.91
72650;SHT31;61467;50.674;4.618;2023-03-30T15:15:48;15.76;64.46
72650;SHT31;61467;50.674;4.618;2023-03-30T15:18:20;15.76;64.79
72650;SHT31;61467;50.674;4.618;2023-03-30T15:20:48;15.73;64.36
72650;SHT31;61467;50.674;4.618;2023-03-30T15:23:15;15.62;65.69
72650;SHT31;61467;50.674;4.618;2023-03-30T15:25:43;15.53;67.12
72650;SHT31;61467;50.674;4.618;2023-03-30T15:28:14;15.42;67.80
72650;SHT31;61467;50.674;4.618;2023-03-30T15:30:44;15.39;67.60
72650;SHT31;61467;50.674;4.618;2023-03-30T15:33:22;15.47;67.37
72650;SHT31;61467;50.674;4.618;2023-03-30T15:35:52;15.63;66.82
72650;SHT31;61467;50.674;4.618;2023-03-30T15:38:27;15.19;67.63
72650;SHT31;61467;50.674;4.618;2023-03-30T15:40:58;15.52;66.69
72650;SHT31;61467;50.674;4.618;2023-03-30T15:43:29;15.47;66.23
72650;SHT31;61467;50.674;4.618;2023-03-30T15:46:00;15.50;67.27
72650;SHT31;61467;50.674;4.618;2023-03-30T15:48:30;15.11;70.23
72650;SHT31;61467;50.674;4.618;2023-03-30T15:51:03;15.18;69.39
72650;SHT31;61467;50.674;4.618;2023-03-30T15:53:35;15.21;69.27
72650;SHT31;61467;50.674;4.618;2023-03-30T15:56:08;15.33;68.71
72650;SHT31;61467;50.674;4.618;2023-03-30T15:58:39;15.32;68.91
72650;SHT31;61467;50.674;4.618;2023-03-30T16:01:09;15.22;69.05
72650;SHT31;61467;50.674;4.618;2023-03-30T16:03:38;14.71;70.75
72650;SHT31;61467;50.674;4.618;2023-03-30T16:06:13;14.80;69.95
72650;SHT31;61467;50.674;4.618;2023-03-30T16:08:41;14.67;70.98
72650;SHT31;61467;50.674;4.618;2023-03-30T16:11:10;14.43;72.36